Time;durP1;ratioP1;P1;durP2;ratioP2;P2;SDS_P1;SDS_P2;PMS_P1;PMS_P2;Temp;Humidity;BMP_temperature;BMP_pressure;BME280_temperature;BME280_humidity;BME280_pressure;Samples;Min_cycle;Max_cycle;Signal;HPM_P1;HPM_P2
2022/07/14 00:02:18;;;;;;;10.02;2.67;;;21.30;99.90;;;;;;4971566;28;20034;-85
2022/07/14 00:04:44;;;;;;;6.05;2.38;;;21.40;99.90;;;;;;4986286;28;20029;-94
2022/07/14 00:07:09;;;;;;;5.90;2.63;;;21.30;99.90;;;;;;4972058;28;20090;-93
2022/07/14 00:09:36;;;;;;;8.93;2.72;;;21.20;99.90;;;;;;4986547;28;20050;-86
2022/07/14 00:12:02;;;;;;;4.07;2.30;;;21.20;99.90;;;;;;4987366;28;20126;-86
2022/07/14 00:14:28;;;;;;;9.05;2.58;;;21.20;99.90;;;;;;4971575;28;20062;-87
2022/07/14 00:16:53;;;;;;;6.88;2.30;;;21.20;99.90;;;;;;4971447;28;20054;-86
2022/07/14 00:19:19;;;;;;;7.78;2.47;;;;;;;;;;4971729;28;20073;-88
2022/07/14 00:21:45;;;;;;;7.68;2.50;;;21.10;99.90;;;;;;4971873;28;20034;-93
2022/07/14 00:24:11;;;;;;;4.93;2.22;;;21.10;99.90;;;;;;4971809;28;20077;-93
2022/07/14 00:26:40;;;;;;;9.48;2.60;;;21.00;99.90;;;;;;4971569;28;20077;-93
2022/07/14 00:29:07;;;;;;;6.90;2.88;;;20.90;99.90;;;;;;4971558;28;20471;-91
2022/07/14 00:31:33;;;;;;;6.53;2.50;;;20.90;99.90;;;;;;4972304;28;20037;-94
2022/07/14 00:34:00;;;;;;;10.38;3.03;;;;;;;;;;4970950;28;20038;-89
2022/07/14 00:36:27;;;;;;;5.82;2.50;;;20.80;99.90;;;;;;4970841;28;20319;-86
2022/07/14 00:38:57;;;;;;;6.15;2.30;;;20.80;99.90;;;;;;4969668;28;20022;-86
2022/07/14 00:41:23;;;;;;;5.00;2.13;;;20.90;99.90;;;;;;4969432;28;20035;-87
2022/07/14 00:43:49;;;;;;;6.97;2.53;;;20.80;99.90;;;;;;4970878;28;20023;-86
2022/07/14 00:46:15;;;;;;;9.40;2.88;;;20.70;99.90;;;;;;4969631;28;20514;-93
2022/07/14 00:48:41;;;;;;;7.07;3.00;;;20.70;99.90;;;;;;4969433;28;20034;-86
2022/07/14 00:51:06;;;;;;;4.63;2.40;;;20.60;99.90;;;;;;4969533;28;20019;-87
2022/07/14 00:53:32;;;;;;;10.23;2.70;;;20.50;99.90;;;;;;4971527;28;20022;-93
2022/07/14 00:55:58;;;;;;;5.10;2.42;;;20.50;99.90;;;;;;4969317;28;20039;-86
2022/07/14 00:58:24;;;;;;;5.75;2.70;;;;;;;;;;4970652;28;20483;-86
2022/07/14 01:00:51;;;;;;;3.65;2.20;;;20.30;99.90;;;;;;4970268;28;20066;-86
2022/07/14 01:03:17;;;;;;;6.35;2.88;;;;;;;;;;4968996;28;20019;-94
2022/07/14 01:05:43;;;;;;;13.07;3.13;;;20.30;99.90;;;;;;4970312;28;20030;-85
2022/07/14 01:08:09;;;;;;;5.13;2.70;;;20.30;99.90;;;;;;4970430;28;20030;-86
2022/07/14 01:10:35;;;;;;;4.40;2.75;;;20.20;99.90;;;;;;4970311;28;20097;-92
2022/07/14 01:13:05;;;;;;;5.13;3.08;;;20.20;99.90;;;;;;4969729;28;20054;-86
2022/07/14 01:15:31;;;;;;;6.63;2.83;;;20.20;99.90;;;;;;4970654;28;20027;-91
2022/07/14 01:17:57;;;;;;;10.18;3.03;;;20.00;99.90;;;;;;4969583;28;20664;-92
2022/07/14 01:20:23;;;;;;;6.13;3.33;;;20.00;99.90;;;;;;4970930;28;20079;-92
2022/07/14 01:22:49;;;;;;;5.65;3.20;;;20.00;99.90;;;;;;4970716;28;20034;-92
2022/07/14 01:25:17;;;;;;;5.63;3.22;;;20.00;99.90;;;;;;4970742;28;20023;-92
2022/07/14 01:27:42;;;;;;;10.65;4.03;;;19.90;99.90;;;;;;4970859;28;20027;-90
2022/07/14 01:30:09;;;;;;;6.35;3.60;;;19.90;99.90;;;;;;4970904;28;20085;-86
2022/07/14 01:32:35;;;;;;;11.15;3.97;;;19.90;99.90;;;;;;4970198;28;20027;-86
2022/07/14 01:35:02;;;;;;;7.50;4.20;;;19.70;99.90;;;;;;4969600;28;20038;-87
2022/07/14 01:37:28;;;;;;;9.77;4.20;;;19.70;99.90;;;;;;4969146;28;20375;-86
2022/07/14 01:39:54;;;;;;;8.95;4.32;;;19.60;99.90;;;;;;4971319;28;20490;-86
2022/07/14 01:42:20;;;;;;;11.20;4.65;;;19.60;99.90;;;;;;4974688;28;20036;-90
2022/07/14 01:44:46;;;;;;;8.95;4.45;;;19.60;99.90;;;;;;4974633;28;20097;-92
2022/07/14 01:47:13;;;;;;;8.23;4.55;;;;;;;;;;4974349;28;20029;-92
2022/07/14 01:49:39;;;;;;;11.90;4.70;;;19.40;99.90;;;;;;4975404;28;20022;-86
2022/07/14 01:52:05;;;;;;;12.25;4.60;;;19.40;99.90;;;;;;4989710;28;20403;-93
2022/07/14 01:54:30;;;;;;;8.98;4.63;;;19.40;99.90;;;;;;4974063;28;20023;-91
2022/07/14 01:56:56;;;;;;;7.13;4.43;;;19.40;99.90;;;;;;4989086;28;20031;-85
2022/07/14 01:59:22;;;;;;;9.05;4.80;;;19.50;99.90;;;;;;4973913;28;20023;-85
2022/07/14 02:01:48;;;;;;;5.78;4.22;;;19.50;99.90;;;;;;4973637;28;20066;-93
2022/07/14 02:04:20;;;;;;;10.75;4.78;;;19.40;99.90;;;;;;4973640;28;20057;-86
2022/07/14 02:06:49;;;;;;;10.48;5.10;;;19.50;99.90;;;;;;4973590;28;20038;-92
2022/07/14 02:09:16;;;;;;;7.38;5.05;;;19.40;99.90;;;;;;4973571;28;20019;-88
2022/07/14 02:14:27;;;;;;;8.55;4.97;;;19.50;99.90;;;;;;4973492;28;20101;-86
2022/07/14 02:16:54;;;;;;;8.43;5.00;;;19.40;99.90;;;;;;4973798;28;20030;-86
2022/07/14 02:19:20;;;;;;;12.13;5.05;;;;;;;;;;4981633;28;20468;-86
2022/07/14 02:21:46;;;;;;;7.72;5.35;;;19.50;99.90;;;;;;4990801;28;20163;-85
2022/07/14 02:24:12;;;;;;;8.18;4.43;;;19.50;99.90;;;;;;4989808;28;20030;-85
2022/07/14 02:26:38;;;;;;;9.63;5.00;;;;;;;;;;4985516;28;20066;-93
2022/07/14 02:29:05;;;;;;;8.75;4.70;;;19.60;99.90;;;;;;4979371;28;20554;-86
2022/07/14 02:31:34;;;;;;;9.05;5.38;;;19.60;99.90;;;;;;4973201;28;20037;-86
2022/07/14 02:34:00;;;;;;;6.70;4.80;;;19.40;99.90;;;;;;4973376;28;20019;-85
2022/07/14 02:36:27;;;;;;;10.18;5.90;;;19.40;99.90;;;;;;4973141;28;20035;-85
2022/07/14 02:38:52;;;;;;;12.77;5.75;;;19.20;99.90;;;;;;4973117;28;20452;-85
2022/07/14 02:41:18;;;;;;;10.40;5.57;;;19.30;99.90;;;;;;4972906;28;20117;-84
2022/07/14 02:43:44;;;;;;;12.18;5.60;;;19.20;99.90;;;;;;4973162;28;20027;-86
2022/07/14 02:46:10;;;;;;;12.93;6.05;;;19.10;99.90;;;;;;4974009;28;20106;-85
2022/07/14 02:48:36;;;;;;;12.77;6.00;;;;;;;;;;4972949;28;20086;-85
2022/07/14 02:51:06;;;;;;;16.27;5.90;;;19.10;99.90;;;;;;4972983;28;20019;-86
2022/07/14 02:53:34;;;;;;;10.13;6.60;;;19.00;99.90;;;;;;4972978;28;20568;-85
2022/07/14 02:56:00;;;;;;;12.73;6.50;;;;;;;;;;4971573;28;20455;-86
2022/07/14 02:58:26;;;;;;;10.52;6.07;;;19.10;99.90;;;;;;4972963;28;20031;-92
2022/07/14 03:00:52;;;;;;;10.13;6.25;;;19.20;99.90;;;;;;4972707;28;20038;-89
2022/07/14 03:03:18;;;;;;;9.10;6.22;;;19.10;99.90;;;;;;4972697;28;20447;-92
2022/07/14 03:05:44;;;;;;;12.45;6.55;;;19.00;99.90;;;;;;4972907;28;20030;-85
2022/07/14 03:08:10;;;;;;;16.05;6.70;;;19.00;99.90;;;;;;4988516;28;20030;-88
2022/07/14 03:10:36;;;;;;;11.70;7.13;;;19.00;99.90;;;;;;4971232;28;20035;-86
2022/07/14 03:13:02;;;;;;;11.52;7.07;;;19.00;99.90;;;;;;4972484;28;20069;-85
2022/07/14 03:15:28;;;;;;;13.77;7.20;;;19.00;99.90;;;;;;4972883;28;20101;-89
2022/07/14 03:17:54;;;;;;;16.27;8.43;;;18.90;99.90;;;;;;4973069;28;20467;-90
2022/07/14 03:20:19;;;;;;;12.18;7.82;;;18.90;99.90;;;;;;4972754;28;20038;-86
2022/07/14 03:22:48;;;;;;;14.77;8.10;;;18.80;99.90;;;;;;4972713;28;20050;-86
2022/07/14 03:25:14;;;;;;;12.50;7.13;;;18.70;99.90;;;;;;4972256;28;20034;-85
2022/07/14 03:27:41;;;;;;;13.32;8.73;;;18.80;99.90;;;;;;4973418;28;20102;-85
2022/07/14 03:30:07;;;;;;;14.70;8.77;;;18.70;99.90;;;;;;4972508;28;20018;-85
2022/07/14 03:32:34;;;;;;;11.85;8.10;;;18.60;99.90;;;;;;4971404;28;20078;-92
2022/07/14 03:35:03;;;;;;;18.95;9.52;;;18.70;99.90;;;;;;4972893;28;20031;-86
2022/07/14 03:37:29;;;;;;;16.77;10.23;;;18.50;99.90;;;;;;4972247;28;20422;-91
2022/07/14 03:39:55;;;;;;;11.35;9.35;;;18.50;99.90;;;;;;4972220;28;20019;-94
2022/07/14 03:42:21;;;;;;;13.95;9.35;;;18.50;99.90;;;;;;4987140;28;20034;-90
2022/07/14 03:44:48;;;;;;;15.55;9.30;;;18.60;99.90;;;;;;4972245;28;20019;-92
2022/07/14 03:47:14;;;;;;;18.15;9.90;;;18.40;99.90;;;;;;4972997;28;20026;-86
2022/07/14 03:49:40;;;;;;;14.10;9.88;;;18.40;99.90;;;;;;4971797;28;20027;-87
2022/07/14 03:52:06;;;;;;;15.70;9.57;;;18.30;99.90;;;;;;4972118;28;20257;-86
2022/07/14 03:54:32;;;;;;;13.38;9.23;;;18.40;99.90;;;;;;4972324;28;20030;-86
2022/07/14 03:56:57;;;;;;;15.80;10.32;;;18.40;99.90;;;;;;4972038;28;20023;-85
2022/07/14 03:59:23;;;;;;;17.48;10.00;;;18.40;99.90;;;;;;4971946;28;20081;-92
2022/07/14 04:01:48;;;;;;;14.50;10.15;;;18.20;99.90;;;;;;4972046;28;20118;-89
2022/07/14 04:04:14;;;;;;;14.15;9.95;;;18.20;99.90;;;;;;4987874;28;20035;-95
2022/07/14 04:06:40;;;;;;;21.98;11.30;;;18.40;99.90;;;;;;4971948;28;20026;-84
2022/07/14 04:09:06;;;;;;;18.42;10.52;;;18.20;99.90;;;;;;4971940;28;20107;-86
2022/07/14 04:11:32;;;;;;;12.82;10.30;;;18.20;99.90;;;;;;4971852;28;20053;-92
2022/07/14 04:13:58;;;;;;;16.80;11.48;;;18.20;99.90;;;;;;4971707;28;20042;-93
2022/07/14 04:16:24;;;;;;;17.08;11.05;;;18.20;99.90;;;;;;4971878;28;20022;-91
2022/07/14 04:18:49;;;;;;;18.30;11.07;;;18.20;99.90;;;;;;4971919;28;20070;-93
2022/07/14 04:21:15;;;;;;;22.60;11.07;;;18.20;99.90;;;;;;4973455;28;20042;-86
2022/07/14 04:23:41;;;;;;;13.57;10.13;;;18.20;99.90;;;;;;4972261;28;20069;-93
2022/07/14 04:26:07;;;;;;;14.77;10.32;;;18.10;99.90;;;;;;4973210;28;20027;-93
2022/07/14 04:28:33;;;;;;;23.70;11.88;;;18.10;99.90;;;;;;4972431;28;20027;-86
2022/07/14 04:30:59;;;;;;;17.98;11.65;;;18.10;99.90;;;;;;4971495;28;20034;-87
2022/07/14 04:33:24;;;;;;;13.80;10.20;;;18.10;99.90;;;;;;4971464;28;20035;-92
2022/07/14 04:35:50;;;;;;;18.75;12.43;;;18.10;99.90;;;;;;4971067;28;20105;-86
2022/07/14 04:38:16;;;;;;;16.95;11.88;;;18.00;99.90;;;;;;4971661;28;20395;-92
2022/07/14 04:40:49;;;;;;;17.27;11.23;;;18.10;99.90;;;;;;4971050;28;20039;-86
2022/07/14 04:43:17;;;;;;;16.50;11.13;;;18.10;99.90;;;;;;4971831;28;20027;-87
2022/07/14 04:45:43;;;;;;;16.38;11.07;;;18.10;99.90;;;;;;4970833;28;20074;-86
2022/07/14 04:48:08;;;;;;;18.85;12.20;;;18.10;99.90;;;;;;4971116;28;20404;-86
2022/07/14 04:53:19;;;;;;;15.30;10.98;;;18.20;99.90;;;;;;4971639;28;20033;-87
2022/07/14 04:55:45;;;;;;;21.33;13.90;;;18.10;99.90;;;;;;4971578;28;20105;-92
2022/07/14 04:58:10;;;;;;;17.42;13.07;;;18.00;99.90;;;;;;4969644;28;20618;-85
2022/07/14 05:00:36;;;;;;;17.30;12.32;;;18.00;99.90;;;;;;4970783;28;20045;-93
2022/07/14 05:03:03;;;;;;;17.60;12.15;;;18.00;99.90;;;;;;4972438;28;20027;-86
2022/07/14 05:05:29;;;;;;;22.95;14.10;;;18.20;99.90;;;;;;4978363;28;20513;-86
2022/07/14 05:07:55;;;;;;;22.42;14.75;;;18.10;99.90;;;;;;4977010;28;20050;-85
2022/07/14 05:10:21;;;;;;;18.38;13.98;;;17.90;99.90;;;;;;4971012;28;20479;-87
2022/07/14 05:12:46;;;;;;;22.35;13.98;;;18.00;99.90;;;;;;4970339;28;20398;-91
2022/07/14 05:15:12;;;;;;;19.67;13.48;;;18.10;99.90;;;;;;4970539;28;20023;-85
2022/07/14 05:17:38;;;;;;;22.77;14.10;;;18.20;99.90;;;;;;4970982;28;20033;-87
2022/07/14 05:20:04;;;;;;;23.65;14.75;;;18.10;99.90;;;;;;4970390;28;20110;-94
2022/07/14 05:22:41;;;;;;;23.90;14.60;;;18.00;99.90;;;;;;4969447;28;20034;-85
2022/07/14 05:25:11;;;;;;;24.17;14.93;;;18.10;99.90;;;;;;4970872;28;20026;-93
2022/07/14 05:27:38;;;;;;;21.10;14.60;;;18.00;99.90;;;;;;4970855;28;20034;-88
2022/07/14 05:30:06;;;;;;;22.65;15.07;;;18.10;99.90;;;;;;4969929;28;20034;-85
2022/07/14 05:32:32;;;;;;;22.30;13.85;;;18.10;99.90;;;;;;4989095;28;20027;-91
2022/07/14 05:34:58;;;;;;;21.05;14.60;;;18.10;99.90;;;;;;4988309;28;20022;-84
2022/07/14 05:37:24;;;;;;;26.30;15.45;;;18.20;99.90;;;;;;4997871;28;20027;-84
2022/07/14 05:39:52;;;;;;;22.48;15.35;;;18.10;99.90;;;;;;4984970;28;20033;-85
2022/07/14 05:42:22;;;;;;;17.53;13.73;;;18.20;99.90;;;;;;4981604;28;20031;-84
2022/07/14 05:44:48;;;;;;;23.25;14.00;;;18.30;99.90;;;;;;4971343;28;20113;-87
2022/07/14 05:47:14;;;;;;;25.23;13.70;;;18.30;99.90;;;;;;4970901;28;20030;-91
2022/07/14 05:49:41;;;;;;;17.48;13.57;;;18.40;99.90;;;;;;4985756;28;20031;-88
2022/07/14 05:52:10;;;;;;;22.67;12.70;;;18.40;99.90;;;;;;4970566;28;20472;-91
2022/07/14 05:54:35;;;;;;;18.95;12.80;;;18.60;99.90;;;;;;4970759;28;20056;-91
2022/07/14 05:57:01;;;;;;;23.58;13.48;;;18.60;99.90;;;;;;4970473;28;20109;-91
2022/07/14 05:59:26;;;;;;;22.23;12.80;;;18.70;99.90;;;;;;4970370;28;20086;-90
2022/07/14 06:01:53;;;;;;;19.27;11.32;;;18.70;99.90;;;;;;4985705;28;20038;-87
2022/07/14 06:04:19;;;;;;;17.90;12.10;;;;;;;;;;4969931;28;20222;-90
2022/07/14 06:06:48;;;;;;;20.27;11.75;;;18.80;99.90;;;;;;4985098;28;20051;-90
2022/07/14 06:09:15;;;;;;;17.48;11.63;;;18.90;99.90;;;;;;4970294;28;20025;-90
2022/07/14 06:11:42;;;;;;;17.30;10.85;;;18.80;99.90;;;;;;4970279;28;20062;-89
2022/07/14 06:14:08;;;;;;;15.50;10.25;;;18.90;99.90;;;;;;4985375;28;20090;-90
2022/07/14 06:16:34;;;;;;;17.55;10.05;;;19.00;99.90;;;;;;4970097;28;20035;-91
2022/07/14 06:19:00;;;;;;;19.75;10.10;;;19.00;99.90;;;;;;4970462;28;20062;-92
2022/07/14 06:21:26;;;;;;;13.77;8.85;;;19.00;99.90;;;;;;4970314;28;20074;-91
2022/07/14 06:23:51;;;;;;;20.52;10.50;;;19.00;99.90;;;;;;4969725;28;20019;-90
2022/07/14 06:26:17;;;;;;;14.65;9.23;;;19.00;99.90;;;;;;4972680;28;20062;-86
2022/07/14 06:28:43;;;;;;;16.65;10.20;;;19.10;99.90;;;;;;4973409;28;20078;-86
2022/07/14 06:31:09;;;;;;;14.85;9.25;;;19.00;99.90;;;;;;4973298;28;20090;-90
2022/07/14 06:33:35;;;;;;;16.50;8.90;;;19.10;99.90;;;;;;4972268;28;20081;-88
2022/07/14 06:36:00;;;;;;;15.05;8.43;;;19.10;99.90;;;;;;4964505;28;20035;-87
2022/07/14 06:38:26;;;;;;;19.95;8.43;;;19.20;99.90;;;;;;4963510;28;20035;-88
2022/07/14 06:40:52;;;;;;;12.50;7.43;;;19.20;99.90;;;;;;4968753;28;20031;-93
2022/07/14 06:43:18;;;;;;;14.48;7.15;;;19.30;99.90;;;;;;4975977;28;20022;-91
2022/07/14 06:45:43;;;;;;;14.13;7.85;;;19.50;99.90;;;;;;4985023;28;20267;-89
2022/07/14 06:48:09;;;;;;;12.48;6.57;;;19.50;99.90;;;;;;4990530;28;20495;-86
2022/07/14 06:50:35;;;;;;;11.57;6.90;;;;;;;;;;4972425;28;20040;-89
2022/07/14 06:53:01;;;;;;;13.55;6.40;;;19.60;99.90;;;;;;4962991;28;20030;-89
2022/07/14 06:55:27;;;;;;;13.00;6.40;;;19.70;99.90;;;;;;4960305;28;20028;-88
2022/07/14 06:57:53;;;;;;;14.38;5.93;;;19.90;99.90;;;;;;4972364;28;20019;-90
2022/07/14 07:00:18;;;;;;;13.15;5.50;;;20.00;99.90;;;;;;4975316;28;20043;-91
2022/07/14 07:02:44;;;;;;;8.98;5.43;;;20.00;99.90;;;;;;4980217;28;20234;-88
2022/07/14 07:08:00;;;;;;;10.93;5.05;;;20.10;99.90;;;;;;4973933;28;20041;-88
2022/07/14 07:10:26;;;;;;;10.10;5.15;;;20.00;99.90;;;;;;4971703;28;20031;-86
2022/07/14 07:12:53;;;;;;;10.60;5.67;;;20.00;99.90;;;;;;4972234;28;20051;-88
2022/07/14 07:15:20;;;;;;;7.40;4.22;;;;;;;;;;4986344;28;20470;-90
2022/07/14 07:17:45;;;;;;;13.60;4.47;;;20.10;99.90;;;;;;4971926;28;20063;-90
2022/07/14 07:20:11;;;;;;;8.27;3.75;;;20.20;99.90;;;;;;4972632;28;20066;-89
2022/07/14 07:22:38;;;;;;;7.22;3.85;;;20.40;99.90;;;;;;4971825;28;20063;-89
2022/07/14 07:25:07;;;;;;;10.38;3.97;;;20.50;99.90;;;;;;4972156;28;20026;-87
2022/07/14 07:27:33;;;;;;;8.52;4.00;;;20.50;99.90;;;;;;4971757;28;20054;-87
2022/07/14 07:30:00;;;;;;;9.10;4.45;;;20.70;99.90;;;;;;4971422;28;20039;-89
2022/07/14 07:32:28;;;;;;;8.48;3.38;;;19.50;99.90;;;;;;4971455;28;20061;-90
2022/07/14 07:34:55;;;;;;;12.88;3.70;;;20.70;99.90;;;;;;4972036;28;20046;-88
2022/07/14 07:37:21;;;;;;;7.30;3.50;;;20.80;99.90;;;;;;4970428;28;20027;-89
2022/07/14 07:39:47;;;;;;;8.82;3.38;;;20.90;99.90;;;;;;4987424;28;20037;-87
2022/07/14 07:42:13;;;;;;;8.90;3.70;;;20.90;99.90;;;;;;4972347;28;20038;-91
2022/07/14 07:44:39;;;;;;;7.95;2.85;;;21.00;99.90;;;;;;4972853;28;20031;-91
2022/07/14 07:47:05;;;;;;;7.95;3.05;;;21.20;99.90;;;;;;4977983;28;20514;-88
2022/07/14 07:49:30;;;;;;;6.65;3.30;;;21.30;99.90;;;;;;4988389;28;20033;-91
2022/07/14 07:52:00;;;;;;;8.38;3.05;;;21.30;99.90;;;;;;4988556;28;20031;-90
2022/07/14 07:54:28;;;;;;;5.82;2.70;;;21.30;99.90;;;;;;4972734;28;20110;-89
2022/07/14 07:56:54;;;;;;;8.48;3.13;;;21.40;99.90;;;;;;4973038;28;20023;-90
2022/07/14 07:59:21;;;;;;;7.70;2.55;;;;;;;;;;4971629;28;20102;-90
2022/07/14 08:01:47;;;;;;;5.93;2.78;;;21.40;99.90;;;;;;4972583;28;20376;-91
2022/07/14 08:04:14;;;;;;;7.97;2.50;;;21.30;99.90;;;;;;4972685;28;20078;-94
2022/07/14 08:06:40;;;;;;;8.23;3.00;;;21.20;99.90;;;;;;4972200;28;20505;-87
2022/07/14 08:09:10;;;;;;;7.82;3.10;;;21.30;99.90;;;;;;4972289;28;20105;-93
2022/07/14 08:11:36;;;;;;;12.90;2.75;;;21.40;99.90;;;;;;4970340;28;20109;-85
2022/07/14 08:14:02;;;;;;;5.55;2.75;;;21.60;99.90;;;;;;4972192;28;20125;-86
2022/07/14 08:16:28;;;;;;;4.70;2.58;;;21.70;99.90;;;;;;4974259;28;20085;-87
2022/07/14 08:18:54;;;;;;;9.40;2.70;;;21.80;99.90;;;;;;4972496;28;20037;-87
2022/07/14 08:21:20;;;;;;;5.90;2.55;;;;;;;;;;4973951;28;20113;-89
2022/07/14 08:23:45;;;;;;;6.30;2.30;;;22.10;99.90;;;;;;4989914;28;20114;-94
2022/07/14 08:26:11;;;;;;;6.85;2.50;;;22.20;99.90;;;;;;4972464;28;20065;-88
2022/07/14 08:28:37;;;;;;;14.32;2.92;;;22.30;99.90;;;;;;4973834;28;20023;-93
2022/07/14 08:31:03;;;;;;;6.22;2.38;;;22.20;99.90;;;;;;4986608;28;20035;-85
2022/07/14 08:33:29;;;;;;;7.82;2.20;;;22.20;99.90;;;;;;4971733;28;20046;-86
2022/07/14 08:35:54;;;;;;;9.15;2.70;;;22.40;99.90;;;;;;4972194;28;20391;-92
2022/07/14 08:38:20;;;;;;;5.80;2.42;;;22.50;99.90;;;;;;4971359;28;20034;-86
2022/07/14 08:40:47;;;;;;;7.15;2.17;;;22.70;99.90;;;;;;4970841;28;20398;-89
2022/07/14 08:43:15;;;;;;;7.05;2.60;;;22.70;99.90;;;;;;4970332;28;20018;-89
2022/07/14 08:45:41;;;;;;;4.72;2.33;;;22.90;99.90;;;;;;4970963;28;20022;-88
2022/07/14 08:48:09;;;;;;;6.07;2.35;;;22.00;99.90;;;;;;4970518;28;20019;-91
2022/07/14 08:50:35;;;;;;;4.32;2.25;;;22.80;99.90;;;;;;4969777;28;20019;-89
2022/07/14 08:53:04;;;;;;;5.28;2.20;;;22.90;99.90;;;;;;4985840;28;20077;-87
2022/07/14 08:55:30;;;;;;;7.35;2.40;;;23.00;99.90;;;;;;4970963;28;20487;-82
2022/07/14 08:57:56;;;;;;;6.45;2.20;;;23.00;99.90;;;;;;4971571;28;20026;-82
2022/07/14 09:00:22;;;;;;;6.35;2.40;;;22.90;99.90;;;;;;4970891;28;20031;-84
2022/07/14 09:02:50;;;;;;;6.70;2.22;;;23.20;99.90;;;;;;4969568;28;20046;-92
2022/07/14 09:05:16;;;;;;;5.45;2.30;;;23.40;99.90;;;;;;4974510;28;20030;-85
2022/07/14 09:07:43;;;;;;;6.70;2.55;;;23.30;99.90;;;;;;4975844;28;20069;-93
2022/07/14 09:10:19;;;;;;;6.18;2.03;;;23.20;99.90;;;;;;4978597;28;20018;-83
2022/07/14 09:12:45;;;;;;;7.20;2.40;;;23.20;99.90;;;;;;4970373;28;20405;-83
2022/07/14 09:17:59;;;;;;;5.15;2.65;;;23.30;99.90;;;;;;4978970;28;20038;-94
2022/07/14 09:20:28;;;;;;;6.18;2.42;;;23.40;99.90;;;;;;4976291;28;20027;-93
2022/07/14 09:22:58;;;;;;;5.53;2.35;;;23.30;99.90;;;;;;4970476;28;20030;-89
2022/07/14 09:25:26;;;;;;;10.68;2.25;;;23.40;99.90;;;;;;4963773;28;20066;-84
2022/07/14 09:27:53;;;;;;;7.45;2.70;;;23.50;99.90;;;;;;4959239;28;20503;-86
2022/07/14 09:30:19;;;;;;;7.10;2.65;;;23.60;99.90;;;;;;4965904;28;20070;-90
2022/07/14 09:32:49;;;;;;;7.18;2.60;;;23.60;99.90;;;;;;4970866;28;20023;-89
2022/07/14 09:35:21;;;;;;;8.82;2.58;;;23.60;99.90;;;;;;4970409;28;20530;-82
2022/07/14 09:37:48;;;;;;;4.75;2.22;;;23.60;99.90;;;;;;4970057;28;20119;-87
2022/07/14 09:40:22;;;;;;;8.60;2.50;;;23.70;99.90;;;;;;4970211;28;20027;-93
2022/07/14 09:42:59;;;;;;;5.55;2.78;;;23.70;99.90;;;;;;4970530;28;20034;-89
2022/07/14 09:45:29;;;;;;;8.98;2.30;;;23.80;99.90;;;;;;4970591;28;20027;-90
2022/07/14 09:48:14;;;;;;;10.70;2.80;;;24.00;99.90;;;;;;4985246;28;20500;-87
2022/07/14 09:50:54;;;;;;;4.68;2.10;;;24.20;99.90;;;;;;4960688;28;20050;-84
2022/07/14 09:53:22;;;;;;;8.27;2.20;;;24.10;99.90;;;;;;4961443;28;20034;-83
2022/07/14 09:55:53;;;;;;;;;;;24.10;99.90;;;;;;4967799;28;20050;-83
2022/07/14 09:58:21;;;;;;;7.95;2.03;;;24.20;99.90;;;;;;4969689;28;19913;-84
2022/07/14 10:00:55;;;;;;;7.07;1.92;;;24.10;99.90;;;;;;4991746;28;20542;-86
2022/07/14 10:03:22;;;;;;;6.50;2.30;;;24.20;99.90;;;;;;4956742;28;20255;-86
2022/07/14 10:05:48;;;;;;;9.95;2.25;;;24.30;99.90;;;;;;4948543;28;20031;-82
2022/07/14 10:08:15;;;;;;;6.25;2.13;;;24.30;99.90;;;;;;4968234;28;20019;-82
2022/07/14 10:10:41;;;;;;;7.60;2.20;;;24.10;99.90;;;;;;4961215;28;20035;-88
2022/07/14 10:13:08;;;;;;;5.75;2.20;;;24.00;99.70;;;;;;4973340;28;20025;-91
2022/07/14 10:15:34;;;;;;;11.32;2.30;;;24.20;99.90;;;;;;4973672;28;20161;-91
2022/07/14 10:18:02;;;;;;;9.43;2.17;;;24.40;99.00;;;;;;4974595;28;20073;-88
2022/07/14 10:20:29;;;;;;;5.45;2.25;;;24.50;96.60;;;;;;4974166;28;20030;-86
2022/07/14 10:22:56;;;;;;;7.63;2.47;;;24.40;99.00;;;;;;4972900;28;20030;-92
2022/07/14 10:25:22;;;;;;;5.18;1.98;;;24.60;97.60;;;;;;4973601;28;20311;-91
2022/07/14 10:27:48;;;;;;;6.65;2.22;;;24.70;97.10;;;;;;4973007;28;20030;-86
2022/07/14 10:30:15;;;;;;;8.52;1.90;;;24.70;95.70;;;;;;4973475;28;20086;-87
2022/07/14 10:32:56;;;;;;;5.63;1.93;;;24.60;95.10;;;;;;4983367;28;20019;-83
2022/07/14 10:35:59;;;;;;;6.20;1.90;;;24.60;98.30;;;;;;4984979;28;20370;-83
2022/07/14 10:38:54;;;;;;;5.40;1.95;;;24.80;93.50;;;;;;4971425;28;20058;-84
2022/07/14 10:42:01;;;;;;;7.53;1.92;;;24.80;94.60;;;;;;4971012;28;20047;-84
2022/07/14 10:44:34;;;;;;;6.65;2.40;;;24.80;92.80;;;;;;4953912;28;20058;-89
2022/07/14 10:47:09;;;;;;;9.30;1.95;;;24.70;94.50;;;;;;4974809;28;20029;-89
2022/07/14 10:50:00;;;;;;;8.65;2.60;;;24.80;94.50;;;;;;4973472;28;20472;-91
2022/07/14 10:52:27;;;;;;;6.95;2.20;;;24.80;91.30;;;;;;4970091;28;20542;-95
2022/07/14 10:55:21;;;;;;;7.68;2.13;;;24.60;93.10;;;;;;4981738;28;20022;-93
2022/07/14 10:57:58;;;;;;;7.70;2.03;;;24.60;93.40;;;;;;4977166;28;20085;-92
2022/07/14 11:00:43;;;;;;;4.88;1.80;;;24.70;91.60;;;;;;4967684;28;20063;-87
2022/07/14 11:03:22;;;;;;;5.72;1.98;;;24.60;93.60;;;;;;4971431;28;20022;-92
2022/07/14 11:06:17;;;;;;;7.28;1.88;;;24.60;93.10;;;;;;4973933;28;20431;-90
2022/07/14 11:08:45;;;;;;;8.77;1.98;;;24.40;90.90;;;;;;4972547;28;20039;-83
2022/07/14 11:11:23;;;;;;;4.60;1.95;;;24.30;89.70;;;;;;4971861;28;20074;-90
2022/07/14 11:14:00;;;;;;;4.28;2.10;;;24.50;90.80;;;;;;4973190;28;20483;-82
2022/07/14 11:16:46;;;;;;;5.75;1.80;;;24.60;91.20;;;;;;4994188;28;20026;-94
2022/07/14 11:19:23;;;;;;;8.23;1.73;;;24.70;86.10;;;;;;4973035;28;20101;-82
2022/07/14 11:22:18;;;;;;;9.65;2.00;;;24.40;85.40;;;;;;4972773;28;20061;-93
2022/07/14 11:24:48;;;;;;;6.07;1.60;;;24.30;86.10;;;;;;4972771;28;20452;-85
2022/07/14 11:27:36;;;;;;;12.75;2.00;;;24.30;87.50;;;;;;4972915;28;20031;-87
2022/07/14 11:30:30;;;;;;;6.30;1.80;;;24.60;85.60;;;;;;4987208;28;20030;-85
2022/07/14 11:33:01;;;;;;;5.97;1.80;;;24.50;88.30;;;;;;4970591;28;20031;-87
2022/07/14 11:38:28;;;;;;;7.85;1.80;;;24.90;86.80;;;;;;4972757;28;20069;-87
2022/07/14 11:40:54;;;;;;;6.88;1.90;;;25.10;81.40;;;;;;4968740;28;20126;-91
2022/07/14 11:43:29;;;;;;;5.72;2.00;;;24.60;77.10;;;;;;4972091;28;20015;-89
2022/07/14 11:45:59;;;;;;;11.65;2.35;;;24.70;83.80;;;;;;4968937;28;20363;-92
2022/07/14 11:48:38;;;;;;;7.53;2.05;;;24.70;85.80;;;;;;4957919;28;20626;-88
2022/07/14 11:51:08;;;;;;;11.95;2.22;;;25.00;81.20;;;;;;4959074;28;20106;-90
2022/07/14 11:53:36;;;;;;;8.30;1.83;;;25.00;81.60;;;;;;4959266;28;20511;-91
2022/07/14 11:56:02;;;;;;;6.55;1.90;;;25.00;80.50;;;;;;4956193;28;20031;-94
2022/07/14 11:58:31;;;;;;;6.88;1.95;;;25.00;78.70;;;;;;4952199;28;20027;-90
2022/07/14 12:00:59;;;;;;;10.02;1.98;;;25.10;76.10;;;;;;4952243;28;20035;-84
2022/07/14 12:03:26;;;;;;;8.48;2.00;;;25.20;76.30;;;;;;4952186;28;20283;-87
2022/07/14 12:05:53;;;;;;;8.27;2.05;;;25.10;78.70;;;;;;4969258;28;20026;-85
2022/07/14 12:08:28;;;;;;;8.07;1.95;;;25.00;75.90;;;;;;4969464;28;20026;-88
2022/07/14 12:11:01;;;;;;;7.43;2.10;;;25.00;77.70;;;;;;4984417;28;20562;-91
2022/07/14 12:13:26;;;;;;;7.82;2.00;;;24.50;78.50;;;;;;4971496;28;20038;-91
2022/07/14 12:15:59;;;;;;;8.75;1.85;;;24.70;79.40;;;;;;4969664;28;20035;-88
2022/07/14 12:18:30;;;;;;;6.78;2.38;;;24.80;76.10;;;;;;4970725;28;20023;-90
2022/07/14 12:20:56;;;;;;;6.72;2.33;;;24.80;73.00;;;;;;4971300;28;20371;-88
2022/07/14 12:23:21;;;;;;;8.70;1.95;;;24.60;75.10;;;;;;4970310;28;20451;-87
2022/07/14 12:25:47;;;;;;;9.20;2.00;;;24.70;74.20;;;;;;4985951;28;20041;-90
2022/07/14 12:28:15;;;;;;;10.93;2.10;;;24.80;73.40;;;;;;4971113;28;20022;-88
2022/07/14 12:30:46;;;;;;;;;;;24.90;74.90;;;;;;4970044;28;20030;-91
2022/07/14 12:33:13;;;;;;;6.57;2.00;;;24.80;75.70;;;;;;4971226;28;19906;-88
2022/07/14 12:35:45;;;;;;;14.05;2.45;;;25.10;72.20;;;;;;4970568;28;20027;-87
2022/07/14 12:38:12;;;;;;;5.07;2.00;;;25.10;71.30;;;;;;4970902;28;20030;-87
2022/07/14 12:40:39;;;;;;;4.28;1.70;;;25.00;69.00;;;;;;4968851;28;20026;-90
2022/07/14 12:43:08;;;;;;;6.95;2.00;;;25.20;72.20;;;;;;4971706;28;20395;-92
2022/07/14 12:46:07;;;;;;;;;;;;;;;;;;;;;
2022/07/14 12:49:00;;;;;;;5.57;1.88;;;24.90;62.50;;;;;;4957201;28;20498;-91
2022/07/14 12:51:44;;;;;;;7.38;2.22;;;24.90;66.10;;;;;;4987393;28;20037;-93
2022/07/14 12:54:18;;;;;;;8.93;2.08;;;25.00;65.50;;;;;;4970544;28;20035;-91
2022/07/14 12:57:00;;;;;;;5.18;1.88;;;25.00;63.30;;;;;;4971684;28;20387;-93
2022/07/14 12:59:40;;;;;;;5.13;1.80;;;24.80;65.80;;;;;;4971395;28;20472;-91
2022/07/14 13:02:09;;;;;;;6.57;1.90;;;24.80;64.60;;;;;;4971738;28;20042;-93
2022/07/14 13:04:39;;;;;;;7.20;2.17;;;24.30;65.30;;;;;;4986989;28;20027;-93
2022/07/14 13:07:25;;;;;;;8.15;1.88;;;24.90;67.10;;;;;;4971854;28;20031;-89